Cedarville, Washington
Current Conditions -  °F | °C
As of 10:15 PM on Tuesday 21 Oct 2014 (Local Time) from KCLS Reporting Station
Drizzle Drizzle  
Wind Chill: 57°   Ceiling: 7000
Heat Index: 57°   Visibility: 10mi
Dew Point: 52°   Wind: 9mph
Humidity: 82%   Direction: 190°S
Pressure: 29.79"   Gusts: NA
Location:  46.8553°N, 123.315°W
Report Text: KCLS 220515Z AUTO 19008KT 10SM -DZ OVC070 14/11 A2979 RMK AO2
Loading
Personal Weather Stations






























Interactive Weather Map
Tropical Storm Tracking
New forecast layout! Learn more

10-Day Weather Forecast

Advertisements
Track Severe Weather on mobile